Bemus Point, New York
Current Conditions -  °F | °C
As of 1:55 AM on Sunday 26 Oct 2014 (Local Time) from KJHW Reporting Station
Clear Clear  
Wind Chill: 42°   Ceiling: Unl
Heat Index: 46°   Visibility: 10mi
Dew Point: 37°   Wind: 9mph
Humidity: 71%   Direction: 250°WSW
Pressure: 29.71"   Gusts: NA
Location:  42.16°N, 79.39°W
Report Text: KJHW 260555Z AUTO 25008KT 220V280 10SM CLR 08/03 A2971 RMK AO1 10120 20080 52007
Loading
Personal Weather Stations






























Interactive Weather Map
Tropical Storm Tracking
New forecast layout! Learn more

10-Day Weather Forecast

Advertisements
Track Severe Weather on mobile